Time;durP1;ratioP1;P1;durP2;ratioP2;P2;SDS_P1;SDS_P2;PMS_P1;PMS_P2;Temp;Humidity;BMP_temperature;BMP_pressure;BME280_temperature;BME280_humidity;BME280_pressure;Samples;Min_cycle;Max_cycle;Signal;HPM_P1;HPM_P2
2022/04/19 00:01:06;;;;;;;14.70;8.03;;;8.90;94.20;;;;;;6218897;23;20020;-86
2022/04/19 00:03:32;;;;;;;14.20;8.37;;;8.90;94.30;;;;;;6193298;23;20016;-86
2022/04/19 00:05:58;;;;;;;19.10;10.57;;;8.90;94.50;;;;;;6218768;23;20027;-85
2022/04/19 00:08:23;;;;;;;12.50;7.83;;;8.90;94.70;;;;;;6218695;23;20015;-85
2022/04/19 00:10:49;;;;;;;10.23;7.00;;;9.00;94.90;;;;;;6193509;23;20020;-86
2022/04/19 00:13:16;;;;;;;11.57;7.60;;;8.90;95.20;;;;;;6220064;23;20042;-86
2022/04/19 00:15:42;;;;;;;10.30;6.90;;;9.00;95.50;;;;;;6195581;23;20016;-85
2022/04/19 00:18:09;;;;;;;11.07;7.00;;;8.90;96.00;;;;;;6220810;23;20370;-88
2022/04/19 00:20:35;;;;;;;11.63;7.50;;;8.90;96.60;;;;;;6220905;23;20434;-86
2022/04/19 00:23:03;;;;;;;10.40;6.50;;;8.90;96.90;;;;;;6220766;23;20026;-85
2022/04/19 00:25:29;;;;;;;11.23;7.40;;;8.80;97.10;;;;;;6195745;23;20441;-85
2022/04/19 00:27:54;;;;;;;10.43;6.70;;;8.80;97.40;;;;;;6195051;23;20019;-85
2022/04/19 00:30:20;;;;;;;10.40;7.20;;;8.80;97.60;;;;;;6220791;23;20243;-88
2022/04/19 00:32:46;;;;;;;11.57;6.73;;;8.80;98.00;;;;;;6220846;23;20016;-88
2022/04/19 00:35:12;;;;;;;11.10;7.13;;;8.80;98.90;;;;;;6195526;23;20054;-85
2022/04/19 00:37:39;;;;;;;11.55;7.05;;;8.80;99.90;;;;;;6220764;23;20031;-85
2022/04/19 00:40:06;;;;;;;;;;;8.80;99.90;;;;;;6195981;23;20020;-87
2022/04/19 00:42:32;;;;;;;13.10;6.50;;;8.80;99.90;;;;;;6247246;23;19994;-85
2022/04/19 00:45:00;;;;;;;10.30;6.53;;;8.80;99.90;;;;;;6220425;23;20076;-85
2022/04/19 00:47:26;;;;;;;10.63;6.88;;;8.80;99.90;;;;;;6220584;23;20366;-87
2022/04/19 00:49:52;;;;;;;10.23;6.68;;;8.80;99.90;;;;;;6247592;23;20043;-86
2022/04/19 00:52:21;;;;;;;10.65;6.97;;;8.70;99.90;;;;;;6220387;23;20464;-86
2022/04/19 00:54:47;;;;;;;12.77;6.88;;;8.80;99.90;;;;;;6220278;23;20020;-85
2022/04/19 00:57:14;;;;;;;11.07;6.80;;;8.80;99.90;;;;;;6220407;23;20026;-85
2022/04/19 00:59:41;;;;;;;13.07;7.13;;;8.70;99.90;;;;;;6220497;23;20062;-86
2022/04/19 01:02:07;;;;;;;;;;;8.70;99.90;;;;;;6220965;23;20020;-86
2022/04/19 01:04:33;;;;;;;11.05;6.82;;;8.70;99.90;;;;;;6220221;23;19916;-85
2022/04/19 01:06:58;;;;;;;9.40;6.57;;;8.60;99.90;;;;;;6220352;23;20025;-85
2022/04/19 01:09:25;;;;;;;10.30;7.23;;;8.60;99.90;;;;;;6247138;23;20091;-85
2022/04/19 01:14:37;;;;;;;11.57;6.60;;;8.40;99.90;;;;;;6220337;23;20154;-85
2022/04/19 01:17:04;;;;;;;10.30;6.78;;;8.30;99.90;;;;;;6220189;23;20020;-85
2022/04/19 01:19:29;;;;;;;;;;;8.20;99.90;;;;;;6247727;23;20068;-85
2022/04/19 01:21:57;;;;;;;13.98;8.27;;;8.20;99.90;;;;;;6195467;23;19919;-85
2022/04/19 01:24:23;;;;;;;11.45;6.88;;;8.20;99.90;;;;;;6219883;23;20024;-85
2022/04/19 01:26:52;;;;;;;;;;;8.30;99.90;;;;;;6220541;23;20023;-85
2022/04/19 01:29:18;;;;;;;10.50;6.85;;;8.30;99.90;;;;;;6246977;23;19989;-86
2022/04/19 01:31:45;;;;;;;12.37;7.27;;;8.30;99.90;;;;;;6219984;23;20020;-86
2022/04/19 01:34:11;;;;;;;;;;;8.30;99.90;;;;;;6220616;23;20027;-86
2022/04/19 01:36:38;;;;;;;10.23;7.40;;;8.40;99.90;;;;;;6219956;23;19938;-86
2022/04/19 01:39:04;;;;;;;;;;;8.40;99.90;;;;;;6220414;23;20473;-86
2022/04/19 01:41:30;;;;;;;12.40;7.40;;;8.40;99.90;;;;;;6219860;23;20329;-84
2022/04/19 01:43:56;;;;;;;11.30;6.83;;;8.40;99.90;;;;;;6219868;23;20023;-85
2022/04/19 01:46:23;;;;;;;10.43;6.63;;;8.30;99.90;;;;;;6219948;23;20341;-85
2022/04/19 01:48:50;;;;;;;12.02;7.10;;;8.30;99.90;;;;;;6220020;23;20298;-85
2022/04/19 01:51:17;;;;;;;10.73;6.57;;;8.20;99.90;;;;;;6219801;23;20020;-86
2022/04/19 01:53:43;;;;;;;11.85;7.32;;;8.10;99.90;;;;;;6219735;23;20031;-86
2022/04/19 01:56:09;;;;;;;11.27;7.15;;;8.00;99.90;;;;;;6219811;23;20476;-86
2022/04/19 01:58:35;;;;;;;13.23;7.60;;;8.00;99.90;;;;;;6219948;23;20016;-86
2022/04/19 02:01:00;;;;;;;10.93;7.20;;;8.00;99.90;;;;;;6219844;23;20363;-87
2022/04/19 02:03:26;;;;;;;11.23;7.60;;;8.00;99.90;;;;;;6219666;23;20441;-86
2022/04/19 02:05:52;;;;;;;12.57;7.47;;;8.00;99.90;;;;;;6194603;23;20024;-86
2022/04/19 02:08:18;;;;;;;10.43;6.93;;;7.90;99.90;;;;;;6219917;23;20082;-86
2022/04/19 02:10:43;;;;;;;10.53;6.97;;;8.00;99.90;;;;;;6219745;23;20023;-86
2022/04/19 02:13:09;;;;;;;11.60;7.50;;;7.90;99.90;;;;;;6219772;23;20422;-86
2022/04/19 02:15:35;;;;;;;10.67;6.60;;;7.90;99.90;;;;;;6219523;23;20476;-86
2022/04/19 02:18:01;;;;;;;10.03;6.73;;;7.90;99.90;;;;;;6219582;23;20027;-86
2022/04/19 02:20:27;;;;;;;10.50;7.22;;;7.90;99.90;;;;;;6219314;23;20020;-85
2022/04/19 02:22:52;;;;;;;12.57;7.13;;;8.00;99.90;;;;;;6219418;23;20015;-86
2022/04/19 02:25:18;;;;;;;10.70;7.00;;;8.00;99.90;;;;;;6219650;23;20042;-85
2022/04/19 02:27:45;;;;;;;10.65;7.13;;;8.00;99.90;;;;;;6194531;23;20438;-86
2022/04/19 02:30:14;;;;;;;11.98;7.07;;;8.00;99.90;;;;;;6219517;23;20024;-85
2022/04/19 02:32:44;;;;;;;10.40;7.32;;;8.00;99.90;;;;;;6219560;23;20012;-86
2022/04/19 02:35:10;;;;;;;9.88;6.90;;;8.00;99.90;;;;;;6219084;23;20433;-85
2022/04/19 02:37:36;;;;;;;12.60;7.77;;;8.10;99.90;;;;;;6219473;23;20020;-86
2022/04/19 02:40:03;;;;;;;13.10;8.00;;;8.10;99.90;;;;;;6219414;23;20008;-86
2022/04/19 02:42:28;;;;;;;11.30;7.43;;;8.10;99.90;;;;;;6219307;23;20023;-86
2022/04/19 02:44:56;;;;;;;12.00;7.90;;;8.10;99.90;;;;;;6246346;23;20012;-86
2022/04/19 02:47:21;;;;;;;12.35;7.32;;;8.00;99.90;;;;;;6219220;23;20070;-86
2022/04/19 02:49:49;;;;;;;12.23;7.33;;;8.00;99.90;;;;;;6194331;23;20020;-86
2022/04/19 02:52:17;;;;;;;11.23;7.72;;;8.00;99.90;;;;;;6219350;23;20019;-85
2022/04/19 02:54:42;;;;;;;11.20;7.57;;;8.00;99.90;;;;;;6219214;23;20063;-85
2022/04/19 02:57:08;;;;;;;12.93;7.47;;;8.00;99.90;;;;;;6219275;23;20350;-85
2022/04/19 02:59:33;;;;;;;11.80;7.47;;;8.00;99.90;;;;;;6219235;23;20019;-86
2022/04/19 03:01:59;;;;;;;11.77;6.80;;;7.90;99.90;;;;;;6246130;23;20380;-86
2022/04/19 03:04:25;;;;;;;10.73;7.40;;;7.80;99.90;;;;;;6214009;23;20509;-85
2022/04/19 03:06:50;;;;;;;11.83;7.10;;;7.80;99.90;;;;;;6214108;23;20401;-85
2022/04/19 03:09:16;;;;;;;12.10;8.07;;;7.70;99.90;;;;;;6239444;23;20453;-85
2022/04/19 03:11:42;;;;;;;11.80;7.63;;;7.70;99.90;;;;;;6214075;23;20027;-85
2022/04/19 03:14:08;;;;;;;12.20;7.60;;;7.70;99.90;;;;;;6215823;23;20019;-85
2022/04/19 03:16:34;;;;;;;10.57;7.10;;;7.60;99.90;;;;;;6213820;23;20017;-85
2022/04/19 03:18:59;;;;;;;11.00;7.17;;;7.60;99.90;;;;;;6214078;23;20020;-85
2022/04/19 03:21:25;;;;;;;14.83;7.87;;;7.50;99.90;;;;;;6214085;23;20016;-86
2022/04/19 03:29:20;;;;;;;12.23;7.97;;;7.40;99.90;;;;;;6214053;23;20055;-85
2022/04/19 03:31:46;;;;;;;11.85;7.72;;;7.40;99.90;;;;;;6215548;23;20020;-86
2022/04/19 03:34:11;;;;;;;13.47;8.13;;;7.40;99.90;;;;;;6214074;23;20020;-86
2022/04/19 03:36:37;;;;;;;13.67;8.00;;;7.40;99.90;;;;;;6213800;23;20075;-86
2022/04/19 03:39:03;;;;;;;13.53;7.63;;;7.40;99.90;;;;;;6214002;23;20012;-86
2022/04/19 03:41:29;;;;;;;13.77;8.50;;;7.40;99.90;;;;;;6215431;23;20239;-86
2022/04/19 03:43:55;;;;;;;12.93;7.87;;;7.30;99.90;;;;;;6215644;23;20016;-86
2022/04/19 03:46:20;;;;;;;12.70;8.20;;;7.30;99.90;;;;;;6215455;23;20013;-86
2022/04/19 03:48:46;;;;;;;12.73;7.90;;;7.30;99.90;;;;;;6213605;23;20017;-85
2022/04/19 03:51:12;;;;;;;13.17;8.27;;;7.30;99.90;;;;;;6213992;23;20035;-86
2022/04/19 03:53:38;;;;;;;11.53;7.90;;;7.30;99.90;;;;;;6215498;23;20043;-87
2022/04/19 03:56:04;;;;;;;14.40;8.47;;;7.30;99.90;;;;;;6213768;23;20021;-86
2022/04/19 03:58:32;;;;;;;13.57;8.10;;;7.30;99.90;;;;;;6213877;23;20332;-85
2022/04/19 04:00:58;;;;;;;14.82;8.35;;;7.30;99.90;;;;;;6215462;23;20016;-86
2022/04/19 04:03:24;;;;;;;14.38;8.73;;;7.30;99.90;;;;;;6217518;23;20016;-86
2022/04/19 04:05:50;;;;;;;13.27;8.13;;;7.30;99.90;;;;;;6218750;23;20023;-87
2022/04/19 04:08:16;;;;;;;12.37;7.67;;;7.30;99.90;;;;;;6218875;23;20020;-86
2022/04/19 04:10:42;;;;;;;14.73;7.90;;;7.30;99.90;;;;;;6218802;23;20356;-86
2022/04/19 04:13:07;;;;;;;12.93;7.97;;;7.30;99.90;;;;;;6218835;23;20027;-85
2022/04/19 04:15:33;;;;;;;13.30;7.80;;;7.20;99.90;;;;;;6193574;23;20024;-85
2022/04/19 04:17:59;;;;;;;12.80;8.07;;;7.10;99.90;;;;;;6218840;23;20050;-85
2022/04/19 04:20:25;;;;;;;13.97;8.53;;;7.10;99.90;;;;;;6218864;23;20454;-84
2022/04/19 04:22:51;;;;;;;12.27;8.00;;;7.10;99.90;;;;;;6218613;23;20073;-85
2022/04/19 04:25:16;;;;;;;12.87;8.67;;;7.00;99.90;;;;;;6218993;23;20027;-84
2022/04/19 04:27:42;;;;;;;12.70;7.87;;;7.00;99.90;;;;;;6218922;23;20467;-84
2022/04/19 04:30:08;;;;;;;13.40;8.27;;;6.90;99.90;;;;;;6218787;23;20082;-85
2022/04/19 04:32:33;;;;;;;13.82;8.13;;;6.90;99.90;;;;;;6218835;23;20347;-84
2022/04/19 04:34:59;;;;;;;15.10;9.03;;;6.90;99.90;;;;;;6218666;23;20031;-85
2022/04/19 04:37:25;;;;;;;12.97;8.23;;;6.80;99.90;;;;;;6218784;23;20020;-84
2022/04/19 04:39:52;;;;;;;13.43;8.50;;;6.80;99.90;;;;;;6218647;23;20099;-84
2022/04/19 04:42:17;;;;;;;14.88;8.68;;;6.70;99.90;;;;;;6218474;23;20026;-85
2022/04/19 04:44:52;;;;;;;13.60;8.20;;;6.70;99.90;;;;;;6218630;23;20087;-84
2022/04/19 04:50:02;;;;;;;12.30;7.97;;;6.70;99.90;;;;;;6218623;23;20089;-86
2022/04/19 04:52:28;;;;;;;13.30;8.27;;;6.80;99.90;;;;;;6193529;23;20437;-86
2022/04/19 04:54:54;;;;;;;13.00;8.40;;;6.80;99.90;;;;;;6245422;23;20070;-85
2022/04/19 04:57:19;;;;;;;13.50;8.40;;;6.80;99.90;;;;;;6245425;23;20032;-86
2022/04/19 05:00:13;;;;;;;12.40;7.93;;;6.80;99.90;;;;;;6219382;23;20019;-86
2022/04/19 05:03:03;;;;;;;16.27;9.25;;;6.80;99.90;;;;;;6220602;23;20028;-86
2022/04/19 05:05:29;;;;;;;13.98;8.55;;;6.90;99.90;;;;;;6219317;23;20388;-85
2022/04/19 05:07:55;;;;;;;15.57;8.70;;;6.90;99.90;;;;;;6220129;23;20077;-85
2022/04/19 05:10:21;;;;;;;14.07;7.97;;;7.00;99.90;;;;;;6220375;23;20016;-87
2022/04/19 05:12:47;;;;;;;15.37;8.27;;;7.10;99.90;;;;;;6220456;23;20020;-86
2022/04/19 05:15:31;;;;;;;14.37;8.10;;;7.10;99.90;;;;;;6195117;23;20016;-84
2022/04/19 05:18:09;;;;;;;13.88;8.43;;;7.30;99.90;;;;;;6195377;23;20062;-87
2022/04/19 05:20:35;;;;;;;12.55;7.97;;;7.40;99.90;;;;;;6220187;23;20017;-88
2022/04/19 05:23:01;;;;;;;13.10;7.57;;;7.40;99.90;;;;;;6195378;23;20437;-86
2022/04/19 05:25:26;;;;;;;13.47;8.40;;;7.40;99.90;;;;;;6194905;23;20055;-86
2022/04/19 05:27:52;;;;;;;14.87;8.47;;;7.50;99.90;;;;;;6220111;23;20100;-86
2022/04/19 05:30:18;;;;;;;16.87;8.77;;;7.60;99.90;;;;;;6219843;23;20103;-86
2022/04/19 05:32:43;;;;;;;15.07;9.20;;;7.70;99.90;;;;;;6247006;23;20022;-85
2022/04/19 05:35:09;;;;;;;13.83;8.13;;;7.80;99.90;;;;;;6219929;23;20016;-86
2022/04/19 05:37:38;;;;;;;13.80;8.63;;;7.90;99.90;;;;;;6220254;23;20413;-86
2022/04/19 05:40:04;;;;;;;13.73;8.10;;;8.00;99.90;;;;;;6219814;23;20020;-86
2022/04/19 05:42:30;;;;;;;16.25;9.48;;;8.00;99.90;;;;;;6219890;23;20062;-86
2022/04/19 05:44:58;;;;;;;14.70;8.70;;;8.00;99.90;;;;;;6220090;23;20016;-87
2022/04/19 05:47:24;;;;;;;13.65;8.50;;;7.90;99.90;;;;;;6194609;23;20044;-85
2022/04/19 05:49:51;;;;;;;15.60;9.10;;;8.00;99.90;;;;;;6219889;23;20027;-85
2022/04/19 05:52:17;;;;;;;15.27;9.20;;;8.00;99.90;;;;;;6246706;23;20012;-86
2022/04/19 05:54:43;;;;;;;14.37;8.40;;;8.10;99.90;;;;;;6194310;23;20044;-84
2022/04/19 05:57:11;;;;;;;15.10;8.47;;;8.10;99.90;;;;;;6219573;23;20016;-84
2022/04/19 05:59:37;;;;;;;13.38;8.48;;;8.20;99.90;;;;;;6219833;23;20579;-87
2022/04/19 06:04:54;;;;;;;14.43;8.82;;;8.30;99.90;;;;;;6245880;23;20488;-88
2022/04/19 06:07:20;;;;;;;15.30;8.45;;;8.50;99.90;;;;;;6244264;23;20016;-88
2022/04/19 06:09:46;;;;;;;14.77;9.00;;;8.80;99.90;;;;;;6218271;23;20493;-88
2022/04/19 06:12:12;;;;;;;14.88;9.05;;;9.10;99.90;;;;;;6219416;23;20027;-89
2022/04/19 06:14:38;;;;;;;16.27;8.37;;;9.20;99.90;;;;;;6246449;23;20023;-87
2022/04/19 06:17:05;;;;;;;15.47;8.93;;;9.30;99.90;;;;;;6246666;23;20268;-87
2022/04/19 06:19:31;;;;;;;13.32;8.55;;;9.40;99.90;;;;;;6246663;23;20028;-89
2022/04/19 06:21:57;;;;;;;14.57;8.73;;;9.50;99.90;;;;;;6246657;23;20048;-87
2022/04/19 06:24:23;;;;;;;13.15;8.23;;;9.60;99.90;;;;;;6246742;23;20464;-88
2022/04/19 06:26:49;;;;;;;12.55;7.63;;;9.70;99.90;;;;;;6219555;23;20017;-85
2022/04/19 06:29:15;;;;;;;15.33;7.93;;;9.90;99.90;;;;;;6246694;23;20027;-87
2022/04/19 06:31:41;;;;;;;12.43;8.15;;;10.00;99.90;;;;;;6219523;23;20105;-86
2022/04/19 06:34:08;;;;;;;14.97;7.43;;;10.40;99.90;;;;;;6193335;23;20019;-87
2022/04/19 06:36:34;;;;;;;11.70;7.53;;;11.10;99.90;;;;;;6246194;23;20062;-87
2022/04/19 06:39:00;;;;;;;10.73;7.18;;;12.00;99.90;;;;;;6219692;23;20090;-88
2022/04/19 06:41:25;;;;;;;11.10;7.03;;;13.00;99.90;;;;;;6246324;23;20047;-86
2022/04/19 06:43:51;;;;;;;10.70;7.07;;;13.90;99.90;;;;;;6219500;23;20012;-88
2022/04/19 06:46:18;;;;;;;11.60;7.10;;;14.60;99.90;;;;;;6246307;23;20022;-89
2022/04/19 06:48:44;;;;;;;11.88;6.90;;;15.00;98.70;;;;;;6219536;23;20239;-87
2022/04/19 06:51:10;;;;;;;13.05;7.05;;;15.30;97.50;;;;;;6219618;23;20020;-87
2022/04/19 06:53:36;;;;;;;11.50;7.10;;;15.60;96.10;;;;;;6246359;23;20008;-88
2022/04/19 06:56:04;;;;;;;11.63;7.15;;;15.80;93.60;;;;;;6219661;23;20070;-90
2022/04/19 06:58:30;;;;;;;10.07;6.82;;;15.60;91.80;;;;;;6219249;23;20016;-89
2022/04/19 07:00:56;;;;;;;;;;;15.50;91.60;;;;;;6219462;23;20020;-88
2022/04/19 07:03:24;;;;;;;9.85;6.80;;;15.30;91.80;;;;;;6220078;23;19915;-87
2022/04/19 07:05:50;;;;;;;10.80;6.47;;;14.90;92.00;;;;;;6219492;23;20025;-91
2022/04/19 07:08:19;;;;;;;12.90;6.10;;;14.60;92.50;;;;;;6219720;23;20023;-87
2022/04/19 07:10:45;;;;;;;10.43;6.72;;;14.40;91.90;;;;;;6219488;23;20083;-84
2022/04/19 07:13:11;;;;;;;14.13;6.33;;;14.40;91.50;;;;;;6246412;23;20449;-89
2022/04/19 07:15:36;;;;;;;9.68;5.30;;;14.30;91.60;;;;;;6194374;23;20047;-91
2022/04/19 07:18:02;;;;;;;8.30;5.53;;;14.40;90.80;;;;;;6246259;23;20342;-89
2022/04/19 07:28:41;;;;;;;9.23;5.72;;;14.30;87.40;;;;;;6247358;23;20028;-90
2022/04/19 07:31:06;;;;;;;9.53;5.00;;;14.30;84.80;;;;;;6246508;23;20019;-93
2022/04/19 07:33:37;;;;;;;7.27;4.77;;;14.20;85.00;;;;;;6219943;23;20042;-94
2022/04/19 07:36:03;;;;;;;10.68;5.60;;;14.00;84.70;;;;;;6219246;23;20080;-87
2022/04/19 07:38:29;;;;;;;10.40;5.50;;;13.90;85.60;;;;;;6245945;23;20095;-87
2022/04/19 07:40:55;;;;;;;8.83;5.10;;;13.70;86.70;;;;;;6216928;23;20039;-87
2022/04/19 07:43:21;;;;;;;8.50;5.00;;;13.60;87.70;;;;;;6243489;23;20028;-88
2022/04/19 07:45:46;;;;;;;10.03;5.00;;;13.50;88.50;;;;;;6243354;23;20058;-86
2022/04/19 07:48:12;;;;;;;8.30;5.03;;;13.30;89.00;;;;;;6217780;23;20077;-88
2022/04/19 07:50:39;;;;;;;6.83;4.27;;;13.20;89.90;;;;;;6245435;23;20023;-85
2022/04/19 07:53:05;;;;;;;7.57;4.30;;;13.10;90.50;;;;;;6218794;23;20522;-86
2022/04/19 07:55:31;;;;;;;7.68;4.45;;;13.00;90.30;;;;;;6245627;23;20341;-86
2022/04/19 07:57:57;;;;;;;6.75;3.75;;;13.00;90.70;;;;;;6245664;23;20402;-88
2022/04/19 08:00:27;;;;;;;7.88;4.75;;;13.00;91.00;;;;;;6193889;23;20051;-87
2022/04/19 08:02:54;;;;;;;7.22;4.07;;;13.10;90.60;;;;;;6245844;23;20058;-87
2022/04/19 08:05:20;;;;;;;7.38;3.58;;;13.00;90.80;;;;;;6218581;23;20020;-85
2022/04/19 08:07:48;;;;;;;6.63;3.40;;;13.10;91.20;;;;;;6218712;23;20469;-87
2022/04/19 08:10:15;;;;;;;5.95;3.50;;;13.20;90.70;;;;;;6245703;23;20019;-87
2022/04/19 08:12:40;;;;;;;7.00;3.70;;;13.20;90.30;;;;;;6218882;23;20016;-87
2022/04/19 08:15:06;;;;;;;5.83;2.93;;;13.30;89.80;;;;;;6218947;23;20497;-87
2022/04/19 08:17:33;;;;;;;7.25;3.25;;;13.30;89.50;;;;;;6218740;23;20024;-86
2022/04/19 08:19:59;;;;;;;;;;;13.40;88.30;;;;;;6219182;23;20127;-86
2022/04/19 08:22:24;;;;;;;5.32;2.83;;;13.40;88.20;;;;;;6245554;23;19920;-88
2022/04/19 08:24:51;;;;;;;5.20;3.20;;;13.50;88.30;;;;;;6193688;23;20503;-85
2022/04/19 08:27:17;;;;;;;4.80;2.63;;;13.60;88.50;;;;;;6218758;23;20016;-86
2022/04/19 08:29:43;;;;;;;5.50;2.50;;;13.60;85.60;;;;;;6218832;23;20024;-87
2022/04/19 08:32:10;;;;;;;5.30;2.40;;;13.70;84.20;;;;;;6245751;23;20034;-86
2022/04/19 08:34:35;;;;;;;4.93;2.58;;;13.70;83.90;;;;;;6219466;23;20456;-86
2022/04/19 08:37:02;;;;;;;4.87;2.67;;;13.70;82.30;;;;;;6220303;23;20074;-88
2022/04/19 08:39:28;;;;;;;4.72;2.40;;;13.80;82.40;;;;;;6247363;23;20016;-88
2022/04/19 08:41:54;;;;;;;4.13;1.80;;;13.80;82.40;;;;;;6195565;23;20092;-86
2022/04/19 08:44:20;;;;;;;3.50;1.60;;;13.80;81.60;;;;;;6220593;23;20051;-87
2022/04/19 08:46:46;;;;;;;3.50;1.80;;;13.80;80.00;;;;;;6247438;23;20027;-88
2022/04/19 08:49:13;;;;;;;3.47;1.60;;;13.90;81.60;;;;;;6247742;23;20091;-86
2022/04/19 08:51:40;;;;;;;3.13;1.65;;;14.00;82.20;;;;;;6220632;23;20019;-87
2022/04/19 08:59:37;;;;;;;5.60;1.92;;;14.00;79.20;;;;;;6247290;23;20323;-89
2022/04/19 09:02:04;;;;;;;5.37;2.00;;;14.00;80.20;;;;;;6220352;23;20023;-87
2022/04/19 09:04:30;;;;;;;3.78;1.85;;;14.10;81.20;;;;;;6219719;23;20022;-91
2022/04/19 09:06:57;;;;;;;5.33;2.30;;;14.20;81.30;;;;;;6196272;23;20119;-84
2022/04/19 09:09:25;;;;;;;6.35;2.90;;;14.20;81.00;;;;;;6222154;23;20585;-87
2022/04/19 09:11:52;;;;;;;6.43;3.20;;;14.20;80.20;;;;;;6222551;23;20027;-91
2022/04/19 09:14:19;;;;;;;5.60;3.00;;;14.20;80.20;;;;;;6222148;23;20012;-85
2022/04/19 09:16:46;;;;;;;8.40;3.58;;;14.20;80.30;;;;;;6197981;23;20445;-89
2022/04/19 09:23:08;;;;;;;6.10;3.85;;;14.30;80.90;;;;;;6250059;23;20328;-83
2022/04/19 09:25:35;;;;;;;5.20;3.25;;;14.30;80.50;;;;;;6220168;23;20027;-84
2022/04/19 09:28:02;;;;;;;6.30;3.22;;;14.30;80.40;;;;;;6195111;23;20047;-86
2022/04/19 09:30:30;;;;;;;7.07;3.30;;;14.40;80.30;;;;;;6220086;23;20044;-84
2022/04/19 09:33:05;;;;;;;6.13;3.53;;;14.40;80.80;;;;;;6195103;23;20023;-84
2022/04/19 09:35:33;;;;;;;6.60;3.45;;;14.50;81.50;;;;;;6219937;23;20016;-85
2022/04/19 09:37:59;;;;;;;5.82;3.28;;;14.50;81.80;;;;;;6194811;23;20020;-84
2022/04/19 09:40:35;;;;;;;6.68;3.72;;;14.50;79.10;;;;;;6194935;23;20092;-87
2022/04/19 09:43:12;;;;;;;6.00;3.47;;;14.60;79.30;;;;;;6219962;23;20020;-85
2022/04/19 09:45:56;;;;;;;4.80;2.80;;;14.60;79.80;;;;;;6194826;23;20016;-86
2022/04/19 09:48:36;;;;;;;6.45;3.72;;;14.70;79.70;;;;;;6246808;23;20069;-88
2022/04/19 09:51:09;;;;;;;5.50;2.92;;;14.70;78.90;;;;;;6194789;23;20450;-87
2022/04/19 09:53:50;;;;;;;4.72;2.55;;;14.70;78.30;;;;;;6220700;23;20019;-86
2022/04/19 09:56:19;;;;;;;5.10;2.50;;;14.80;78.80;;;;;;6194395;23;20228;-82
2022/04/19 09:58:46;;;;;;;5.75;2.58;;;14.80;77.90;;;;;;6194509;23;20023;-86
2022/04/19 10:10:42;;;;;;;5.13;2.72;;;15.00;77.40;;;;;;6246704;23;20094;-86
2022/04/19 10:13:08;;;;;;;5.93;2.40;;;15.10;75.50;;;;;;6194523;23;20048;-85
2022/04/19 10:15:35;;;;;;;4.88;2.60;;;15.10;74.30;;;;;;6194544;23;20018;-85
2022/04/19 10:18:02;;;;;;;5.35;2.38;;;15.10;74.10;;;;;;6194435;23;20012;-86
2022/04/19 10:20:31;;;;;;;5.18;2.95;;;15.20;75.10;;;;;;6194549;23;20023;-85
2022/04/19 10:23:04;;;;;;;6.88;2.70;;;15.20;74.90;;;;;;6246339;23;20012;-85
2022/04/19 10:25:40;;;;;;;7.93;2.50;;;15.30;75.70;;;;;;6219313;23;20016;-86
2022/04/19 10:28:07;;;;;;;6.43;2.40;;;15.30;74.10;;;;;;6219616;23;20016;-87
2022/04/19 10:30:37;;;;;;;5.47;2.78;;;15.40;73.50;;;;;;6246350;23;20047;-85
2022/04/19 10:33:40;;;;;;;5.68;2.92;;;15.40;72.90;;;;;;6217942;23;20012;-86
2022/04/19 10:36:16;;;;;;;4.88;2.80;;;15.40;73.60;;;;;;6194659;23;20016;-86
2022/04/19 10:38:44;;;;;;;5.05;2.58;;;15.50;73.80;;;;;;6246816;23;20070;-84
2022/04/19 10:41:10;;;;;;;4.30;2.75;;;15.50;73.30;;;;;;6246621;23;20027;-86
2022/04/19 10:43:35;;;;;;;4.90;2.80;;;15.60;72.70;;;;;;6219432;23;20341;-85
2022/04/19 10:46:16;;;;;;;5.25;2.63;;;15.70;73.40;;;;;;6219549;23;20024;-87
2022/04/19 10:51:35;;;;;;;6.05;3.45;;;15.90;73.20;;;;;;6216272;23;20074;-87
2022/04/19 10:54:00;;;;;;;6.65;3.17;;;16.00;73.40;;;;;;6189268;23;20389;-87
2022/04/19 10:56:26;;;;;;;5.77;3.30;;;16.00;74.20;;;;;;6188821;23;20074;-85
2022/04/19 10:58:52;;;;;;;7.07;3.27;;;16.10;74.90;;;;;;6189218;23;20047;-86
2022/04/19 11:01:31;;;;;;;6.55;3.50;;;16.30;74.70;;;;;;6164074;23;20017;-86
2022/04/19 11:03:58;;;;;;;7.13;3.75;;;16.30;73.70;;;;;;6188149;23;20024;-85
2022/04/19 11:06:37;;;;;;;6.15;3.38;;;16.40;73.00;;;;;;6164581;23;20023;-87
2022/04/19 11:09:20;;;;;;;5.20;3.00;;;16.30;72.80;;;;;;6189555;23;20048;-86
2022/04/19 11:11:47;;;;;;;5.43;3.33;;;16.40;72.50;;;;;;6214214;23;20111;-88
2022/04/19 11:14:29;;;;;;;6.88;3.40;;;16.30;72.80;;;;;;6215726;23;20095;-87
2022/04/19 11:17:19;;;;;;;6.63;3.90;;;16.50;72.40;;;;;;6188919;23;20454;-87
2022/04/19 11:20:17;;;;;;;7.70;3.30;;;16.50;72.40;;;;;;6189134;23;20106;-88
2022/04/19 11:22:48;;;;;;;7.00;4.38;;;16.50;72.80;;;;;;6189006;23;20052;-88
2022/04/19 11:25:15;;;;;;;7.93;3.30;;;16.70;72.00;;;;;;6188717;23;20020;-88
2022/04/19 11:27:53;;;;;;;5.75;2.85;;;16.70;71.50;;;;;;6188854;23;20025;-88
2022/04/19 11:30:26;;;;;;;5.72;3.40;;;16.80;71.50;;;;;;6189136;23;20084;-89
2022/04/19 11:32:58;;;;;;;6.75;3.30;;;16.70;71.50;;;;;;6213881;23;20346;-88
2022/04/19 11:35:24;;;;;;;5.25;3.42;;;16.80;70.80;;;;;;6214003;23;20024;-87
2022/04/19 11:37:50;;;;;;;7.53;3.42;;;16.80;70.60;;;;;;6215442;23;20479;-87
2022/04/19 11:48:50;;;;;;;4.50;2.10;;;16.80;69.20;;;;;;6188990;23;20450;-89
2022/04/19 11:51:21;;;;;;;6.53;2.80;;;16.80;68.00;;;;;;6163753;23;20529;-88
2022/04/19 11:53:49;;;;;;;4.65;2.53;;;16.80;69.10;;;;;;6163976;23;20106;-87
2022/04/19 11:56:16;;;;;;;6.18;3.00;;;16.90;68.90;;;;;;6164171;23;20020;-90
2022/04/19 11:58:48;;;;;;;4.72;2.50;;;16.90;68.10;;;;;;6164144;23;20017;-89
2022/04/19 12:01:15;;;;;;;4.45;2.25;;;16.90;67.60;;;;;;6188650;23;20079;-88
2022/04/19 12:03:42;;;;;;;6.40;2.88;;;17.00;66.90;;;;;;6188809;23;20027;-88
2022/04/19 12:06:18;;;;;;;4.25;2.38;;;17.00;67.20;;;;;;6188378;23;20025;-88
2022/04/19 12:08:52;;;;;;;4.40;2.10;;;17.00;67.80;;;;;;6189880;23;20445;-87
2022/04/19 12:11:24;;;;;;;3.90;2.25;;;17.10;66.70;;;;;;6190971;23;20450;-87
2022/04/19 12:13:57;;;;;;;4.18;2.40;;;17.10;66.80;;;;;;6217569;23;20027;-88
2022/04/19 12:16:34;;;;;;;3.72;2.13;;;17.20;66.90;;;;;;6190783;23;20020;-89
2022/04/19 12:19:30;;;;;;;6.05;2.28;;;17.10;66.20;;;;;;6190449;23;20017;-90
2022/04/19 12:21:56;;;;;;;4.18;2.15;;;17.20;67.80;;;;;;6217450;23;20366;-87
2022/04/19 12:24:26;;;;;;;4.93;2.08;;;17.30;67.20;;;;;;6217137;23;20012;-88
2022/04/19 12:27:06;;;;;;;3.85;2.17;;;17.30;67.00;;;;;;6165782;23;20092;-89
2022/04/19 12:29:36;;;;;;;4.63;2.10;;;17.30;65.30;;;;;;6215528;23;20013;-89
2022/04/19 12:32:04;;;;;;;4.13;2.30;;;17.30;66.30;;;;;;6216838;23;20016;-89
2022/04/19 12:34:38;;;;;;;4.30;2.17;;;17.30;65.30;;;;;;6215784;23;20012;-86
2022/04/19 12:37:09;;;;;;;5.35;2.60;;;17.20;66.30;;;;;;6215520;23;20044;-87
2022/04/19 12:39:35;;;;;;;3.92;2.33;;;17.20;66.40;;;;;;6165523;23;20016;-87
2022/04/19 12:42:09;;;;;;;6.53;2.30;;;17.30;66.60;;;;;;6217063;23;20013;-89
2022/04/19 12:44:36;;;;;;;4.40;2.15;;;17.40;65.30;;;;;;6216997;23;20024;-88
2022/04/19 12:47:10;;;;;;;5.80;2.47;;;17.40;65.80;;;;;;6190474;23;20016;-87
2022/04/19 12:49:43;;;;;;;4.75;2.60;;;17.40;66.20;;;;;;6186815;23;20012;-88
2022/04/19 12:52:09;;;;;;;4.47;2.60;;;17.40;65.50;;;;;;6190195;23;20027;-87
2022/04/19 12:54:43;;;;;;;5.57;2.50;;;17.40;65.30;;;;;;6216849;23;20087;-87
2022/04/19 12:57:23;;;;;;;5.70;2.53;;;17.40;66.50;;;;;;6139299;23;20021;-87
2022/04/19 12:59:50;;;;;;;5.40;2.53;;;17.50;66.60;;;;;;6165200;23;20016;-89
2022/04/19 13:02:18;;;;;;;5.10;3.17;;;17.60;65.20;;;;;;6215379;23;20031;-89
2022/04/19 13:04:46;;;;;;;4.90;2.40;;;17.60;65.50;;;;;;6165401;23;20024;-89
2022/04/19 13:12:43;;;;;;;6.63;2.83;;;17.50;63.80;;;;;;6216885;23;20025;-88
2022/04/19 13:15:09;;;;;;;5.72;3.20;;;17.50;64.20;;;;;;6189629;23;20013;-88
2022/04/19 13:17:37;;;;;;;6.65;3.00;;;17.50;64.30;;;;;;6190044;23;20017;-88
2022/04/19 13:20:04;;;;;;;5.68;3.10;;;17.40;65.10;;;;;;6216289;23;20398;-86
2022/04/19 13:22:30;;;;;;;5.10;3.05;;;17.50;65.30;;;;;;6190048;23;20055;-88
2022/04/19 13:25:20;;;;;;;5.35;2.80;;;17.50;63.90;;;;;;6216165;23;20035;-92
2022/04/19 13:27:47;;;;;;;6.03;3.35;;;17.50;64.90;;;;;;6190930;23;20027;-93
2022/04/19 13:30:22;;;;;;;5.15;3.10;;;17.50;65.10;;;;;;6192212;23;20013;-94
2022/04/19 13:33:02;;;;;;;5.20;3.17;;;17.50;64.40;;;;;;6166616;23;20071;-92
2022/04/19 13:35:31;;;;;;;6.47;3.13;;;17.50;64.20;;;;;;6166796;23;20323;-96
2022/04/19 14:27:29;;;;;;;6.05;3.53;;;17.40;61.10;;;;;;6228581;22;20024;-92
2022/04/19 14:35:23;;;;;;;6.63;3.00;;;17.20;62.90;;;;;;6190360;23;20025;-91
2022/04/19 14:37:49;;;;;;;5.38;3.08;;;17.20;62.40;;;;;;6190452;23;20016;-91
2022/04/19 14:40:15;;;;;;;6.65;3.42;;;17.10;61.90;;;;;;6165672;23;20008;-93
2022/04/19 14:42:41;;;;;;;7.07;3.10;;;17.00;62.50;;;;;;6190675;23;20058;-92
2022/04/19 14:45:08;;;;;;;6.30;3.63;;;17.00;63.30;;;;;;6166014;23;20016;-93